Time;durP1;ratioP1;P1;durP2;ratioP2;P2;SDS_P1;SDS_P2;PMS_P1;PMS_P2;Temp;Humidity;BMP_temperature;BMP_pressure;BME280_temperature;BME280_humidity;BME280_pressure;Samples;Min_cycle;Max_cycle;Signal;HPM_P1;HPM_P2
2022/12/18 00:00:47;;;;;;;;;;;17.70;56.30;;;;;;4449668;32;20465;-73
2022/12/18 00:03:13;;;;;;;;;;;17.70;56.30;;;;;;4449120;32;19985;-73
2022/12/18 00:05:46;;;;;;;;;;;17.70;56.30;;;;;;4443768;32;19997;-73
2022/12/18 00:08:12;;;;;;;;;;;17.70;56.30;;;;;;4448359;32;19978;-73
2022/12/18 00:10:38;;;;;;;;;;;17.60;56.30;;;;;;4448756;32;20115;-73
2022/12/18 00:13:04;;;;;;;;;;;17.60;56.30;;;;;;4449720;32;20100;-74
2022/12/18 00:15:30;;;;;;;;;;;17.60;56.30;;;;;;4448797;32;19973;-73
2022/12/18 00:17:56;;;;;;;;;;;17.60;56.30;;;;;;4449943;32;20092;-74
2022/12/18 00:20:25;;;;;;;;;;;17.50;56.10;;;;;;4448775;32;20315;-73
2022/12/18 00:22:51;;;;;;;;;;;17.50;56.10;;;;;;4449042;32;19988;-73
2022/12/18 00:25:17;;;;;;;;;;;17.50;56.10;;;;;;4449762;32;19978;-73
2022/12/18 00:27:43;;;;;;;;;;;17.50;55.80;;;;;;4462199;32;20009;-73
2022/12/18 00:30:09;;;;;;;;;;;17.50;55.80;;;;;;4460904;32;20078;-73
2022/12/18 00:32:35;;;;;;;;;;;17.50;55.80;;;;;;4458713;32;20112;-73
2022/12/18 00:35:00;;;;;;;;;;;17.40;55.70;;;;;;4460662;32;19981;-73
2022/12/18 00:37:26;;;;;;;;;;;17.40;55.80;;;;;;4460055;32;19978;-73
2022/12/18 00:39:54;;;;;;;;;;;17.40;55.80;;;;;;4461093;32;20408;-73
2022/12/18 00:45:04;;;;;;;;;;;17.40;55.90;;;;;;4459626;32;20394;-73
2022/12/18 00:47:32;;;;;;;;;;;17.40;55.90;;;;;;4457829;32;20045;-74
2022/12/18 00:49:58;;;;;;;;;;;17.40;55.80;;;;;;4460392;32;19990;-73
2022/12/18 00:52:24;;;;;;;;;;;17.30;55.70;;;;;;4459611;32;19967;-73
2022/12/18 00:54:50;;;;;;;;;;;17.30;55.80;;;;;;4459496;32;19967;-73
2022/12/18 00:57:15;;;;;;;;;;;17.30;56.00;;;;;;4460433;32;20207;-74
2022/12/18 00:59:41;;;;;;;;;;;17.30;56.10;;;;;;4460400;32;19994;-74
2022/12/18 01:02:07;;;;;;;;;;;17.30;56.00;;;;;;4458837;32;19958;-74
2022/12/18 01:04:33;;;;;;;;;;;17.30;56.00;;;;;;4458890;32;20005;-73
2022/12/18 01:06:59;;;;;;;;;;;17.40;56.10;;;;;;4459315;32;20435;-74
2022/12/18 01:09:25;;;;;;;;;;;17.40;56.00;;;;;;4459148;32;20125;-73
2022/12/18 01:11:52;;;;;;;;;;;17.40;56.00;;;;;;4459384;32;20064;-76
2022/12/18 01:14:18;;;;;;;;;;;17.40;56.00;;;;;;4459909;32;19978;-73
2022/12/18 01:16:44;;;;;;;;;;;17.40;55.90;;;;;;4460126;32;20311;-75
2022/12/18 01:19:09;;;;;;;;;;;17.40;55.90;;;;;;4458490;32;20392;-73
2022/12/18 01:21:35;;;;;;;;;;;17.40;55.80;;;;;;4456343;32;20001;-73
2022/12/18 01:24:05;;;;;;;;;;;17.40;55.80;;;;;;4457494;32;20422;-73
2022/12/18 01:26:31;;;;;;;;;;;17.40;56.70;;;;;;4458477;32;19978;-73
2022/12/18 01:29:06;;;;;;;;;;;17.40;55.70;;;;;;4461578;32;20152;-73
2022/12/18 01:31:33;;;;;;;;;;;17.40;56.60;;;;;;4459238;32;19970;-73
2022/12/18 01:34:03;;;;;;;;;;;17.40;55.60;;;;;;4457357;32;19989;-73
2022/12/18 01:36:30;;;;;;;;;;;17.40;55.70;;;;;;4459429;32;19993;-73
2022/12/18 01:38:59;;;;;;;;;;;17.40;55.50;;;;;;4458639;32;20002;-73
2022/12/18 01:41:26;;;;;;;;;;;17.40;55.50;;;;;;4460637;32;20021;-73
2022/12/18 01:44:31;;;;;;;;;;;17.40;55.50;;;;;;4459102;32;20399;-73
2022/12/18 01:46:57;;;;;;;;;;;17.50;55.50;;;;;;4459548;32;19974;-73
2022/12/18 01:49:23;;;;;;;;;;;17.50;55.50;;;;;;4458113;32;19978;-73
2022/12/18 01:51:48;;;;;;;;;;;17.50;55.40;;;;;;4458867;32;19983;-73
2022/12/18 01:54:14;;;;;;;;;;;17.50;55.40;;;;;;4458859;32;19990;-73
2022/12/18 01:56:40;;;;;;;;;;;17.50;55.30;;;;;;4458952;32;19994;-74
2022/12/18 01:59:07;;;;;;;;;;;17.50;55.20;;;;;;4459327;32;20367;-73
2022/12/18 02:01:33;;;;;;;;;;;17.50;55.20;;;;;;4455695;32;19987;-74
2022/12/18 02:04:18;;;;;;;;;;;17.50;55.10;;;;;;4459731;32;19997;-73
2022/12/18 02:06:43;;;;;;;;;;;17.50;55.10;;;;;;4458951;32;19978;-73
2022/12/18 02:09:19;;;;;;;;;;;17.50;55.20;;;;;;4457934;32;19963;-73
2022/12/18 02:12:08;;;;;;;;;;;17.50;55.00;;;;;;4459559;32;19993;-73
2022/12/18 02:14:38;;;;;;;;;;;17.50;55.10;;;;;;4455358;32;20009;-73
2022/12/18 02:17:06;;;;;;;;;;;17.50;55.00;;;;;;4459884;32;19978;-73
2022/12/18 02:19:32;;;;;;;;;;;17.40;54.90;;;;;;4460493;32;20112;-73
2022/12/18 02:22:14;;;;;;;;;;;17.40;54.90;;;;;;4459452;32;19986;-73
2022/12/18 02:24:45;;;;;;;;;;;17.40;54.80;;;;;;4459494;32;20280;-73
2022/12/18 02:27:11;;;;;;;;;;;17.40;55.00;;;;;;4459581;32;20322;-73
2022/12/18 02:29:44;;;;;;;;;;;17.40;54.80;;;;;;4460206;32;20387;-73
2022/12/18 02:32:13;;;;;;;;;;;17.40;54.90;;;;;;4456370;32;19983;-73
2022/12/18 02:34:39;;;;;;;;;;;17.40;54.80;;;;;;4458922;32;20411;-73
2022/12/18 02:37:07;;;;;;;;;;;17.40;54.80;;;;;;4459004;32;19996;-73
2022/12/18 02:39:34;;;;;;;;;;;17.40;54.80;;;;;;4457104;32;20045;-75
2022/12/18 02:42:02;;;;;;;;;;;17.40;54.80;;;;;;4459819;32;20028;-73
2022/12/18 02:44:28;;;;;;;;;;;17.40;54.80;;;;;;4458062;32;20485;-73
2022/12/18 02:46:54;;;;;;;;;;;17.40;54.70;;;;;;4458185;32;20076;-73
2022/12/18 02:49:31;;;;;;;;;;;17.40;54.80;;;;;;4457244;32;19966;-73
2022/12/18 02:52:06;;;;;;;;;;;17.40;54.70;;;;;;4459036;32;19978;-73
2022/12/18 02:54:32;;;;;;;;;;;17.40;54.70;;;;;;4458646;32;19985;-73
2022/12/18 02:56:59;;;;;;;;;;;17.40;54.70;;;;;;4459674;32;19974;-73
2022/12/18 02:59:36;;;;;;;;;;;17.30;54.60;;;;;;4459842;32;19997;-73
2022/12/18 03:02:02;;;;;;;;;;;17.30;54.60;;;;;;4453881;32;19982;-73
2022/12/18 03:04:34;;;;;;;;;;;17.30;54.60;;;;;;4457554;32;19958;-73
2022/12/18 03:07:03;;;;;;;;;;;17.30;54.90;;;;;;4451042;32;19979;-73
2022/12/18 03:09:35;;;;;;;;;;;17.30;55.10;;;;;;4453060;32;19971;-75
2022/12/18 03:12:24;;;;;;;;;;;17.30;55.20;;;;;;4460529;32;20324;-72
2022/12/18 03:14:55;;;;;;;;;;;17.30;55.20;;;;;;4460081;32;20422;-72
2022/12/18 03:17:23;;;;;;;;;;;17.30;55.30;;;;;;4460777;32;19989;-74
2022/12/18 03:19:49;;;;;;;;;;;17.30;55.30;;;;;;4460493;32;19974;-79
2022/12/18 03:22:15;;;;;;;;;;;17.30;55.50;;;;;;4446615;32;19982;-72
2022/12/18 03:24:41;;;;;;;;;;;17.30;55.40;;;;;;4460227;32;19978;-74
2022/12/18 03:27:11;;;;;;;;;;;17.30;55.30;;;;;;4460481;32;20312;-72
2022/12/18 03:29:40;;;;;;;;;;;17.30;55.30;;;;;;4460570;32;20014;-72
2022/12/18 03:32:08;;;;;;;;;;;17.30;55.30;;;;;;4446413;32;20411;-72
2022/12/18 03:34:35;;;;;;;;;;;17.30;55.30;;;;;;4460340;32;20404;-73
2022/12/18 03:37:01;;;;;;;;;;;17.20;55.30;;;;;;4460210;32;20426;-72
2022/12/18 03:39:27;;;;;;;;;;;17.30;55.30;;;;;;4460271;32;20048;-73
2022/12/18 03:42:00;;;;;;;;;;;17.20;55.30;;;;;;4460145;32;19982;-73
2022/12/18 03:44:36;;;;;;;;;;;17.20;55.20;;;;;;4462423;32;19982;-72
2022/12/18 03:47:22;;;;;;;;;;;17.20;55.20;;;;;;4462903;32;20458;-72
2022/12/18 03:50:00;;;;;;;;;;;17.20;55.30;;;;;;4463274;32;19985;-73
2022/12/18 03:52:36;;;;;;;;;;;17.20;55.30;;;;;;4462950;32;19974;-73
2022/12/18 03:55:03;;;;;;;;;;;17.20;55.00;;;;;;4463219;32;20339;-73
2022/12/18 03:57:30;;;;;;;;;;;17.20;54.80;;;;;;4462966;32;19986;-73
2022/12/18 04:00:01;;;;;;;;;;;17.20;54.70;;;;;;4462889;32;20067;-73
2022/12/18 04:02:28;;;;;;;;;;;17.20;54.50;;;;;;4462806;32;20042;-74
2022/12/18 04:04:57;;;;;;;;;;;17.20;54.60;;;;;;4462961;32;20002;-72
2022/12/18 04:07:23;;;;;;;;;;;17.20;54.40;;;;;;4463004;32;19970;-73
2022/12/18 04:09:49;;;;;;;;;;;17.20;54.40;;;;;;4462867;32;20406;-73
2022/12/18 04:12:15;;;;;;;;;;;17.20;54.40;;;;;;4462810;32;19978;-72
2022/12/18 04:14:41;;;;;;;;;;;17.20;54.30;;;;;;4462458;32;20379;-73
2022/12/18 04:17:07;;;;;;;;;;;17.10;54.30;;;;;;4462797;32;20093;-73
2022/12/18 04:19:33;;;;;;;;;;;17.10;54.30;;;;;;4460995;32;20088;-77
2022/12/18 04:21:59;;;;;;;;;;;17.10;54.20;;;;;;4459980;32;19997;-73
2022/12/18 04:24:24;;;;;;;;;;;17.10;54.20;;;;;;4460032;32;19985;-73
2022/12/18 04:26:50;;;;;;;;;;;17.10;54.10;;;;;;4459368;32;19970;-73
2022/12/18 04:29:18;;;;;;;;;;;17.10;54.20;;;;;;4460910;32;19974;-73
2022/12/18 04:31:44;;;;;;;;;;;17.10;54.10;;;;;;4460576;32;19980;-73
2022/12/18 04:34:10;;;;;;;;;;;17.10;54.00;;;;;;4461565;32;19974;-73
2022/12/18 04:36:36;;;;;;;;;;;17.10;54.10;;;;;;4458757;32;20319;-73
2022/12/18 04:39:02;;;;;;;;;;;17.10;54.10;;;;;;4459755;32;19998;-72
2022/12/18 04:41:28;;;;;;;;;;;17.10;54.00;;;;;;4461831;32;19970;-73
2022/12/18 04:43:53;;;;;;;;;;;17.10;53.90;;;;;;4459596;32;19966;-73
2022/12/18 04:46:19;;;;;;;;;;;17.10;53.90;;;;;;4446845;32;20048;-73
2022/12/18 04:48:45;;;;;;;;;;;17.10;54.00;;;;;;4460388;32;19982;-73
2022/12/18 04:51:13;;;;;;;;;;;17.00;53.90;;;;;;4461229;32;19978;-73
2022/12/18 04:53:39;;;;;;;;;;;17.00;54.00;;;;;;4457876;32;20033;-73
2022/12/18 04:56:09;;;;;;;;;;;17.00;54.00;;;;;;4456498;32;19975;-73
2022/12/18 04:58:35;;;;;;;;;;;17.00;54.00;;;;;;4447922;32;20044;-73
2022/12/18 05:01:01;;;;;;;;;;;17.00;54.00;;;;;;4454598;32;20001;-73
2022/12/18 05:03:27;;;;;;;;;;;17.00;54.00;;;;;;4458539;32;20063;-74
2022/12/18 05:05:52;;;;;;;;;;;17.00;54.00;;;;;;4454727;32;19986;-73
2022/12/18 05:08:19;;;;;;;;;;;17.00;54.10;;;;;;4459831;32;19994;-73
2022/12/18 05:10:44;;;;;;;;;;;17.00;54.00;;;;;;4460296;32;20454;-73
2022/12/18 05:13:10;;;;;;;;;;;17.00;54.00;;;;;;4459222;32;20404;-74
2022/12/18 05:15:36;;;;;;;;;;;17.00;54.10;;;;;;4459747;32;19986;-73
2022/12/18 05:18:03;;;;;;;;;;;17.00;54.00;;;;;;4459474;32;20687;-74
2022/12/18 05:20:29;;;;;;;;;;;17.00;54.00;;;;;;4460392;32;20426;-73
2022/12/18 05:22:55;;;;;;;;;;;16.90;54.00;;;;;;4458117;32;20203;-73
2022/12/18 05:25:21;;;;;;;;;;;16.90;54.00;;;;;;4443337;32;20139;-73
2022/12/18 05:27:47;;;;;;;;;;;16.90;53.90;;;;;;4459017;32;20030;-73
2022/12/18 05:30:13;;;;;;;;;;;16.90;53.80;;;;;;4458411;32;19966;-73
2022/12/18 05:32:40;;;;;;;;;;;16.90;53.90;;;;;;4460168;32;20123;-73
2022/12/18 05:35:07;;;;;;;;;;;16.90;53.80;;;;;;4459868;32;20148;-73
2022/12/18 05:37:32;;;;;;;;;;;16.90;53.90;;;;;;4460692;32;20115;-73
2022/12/18 05:39:58;;;;;;;;;;;16.90;53.80;;;;;;4459992;32;20124;-75
2022/12/18 05:42:24;;;;;;;;;;;16.90;53.90;;;;;;4458173;32;20296;-73
2022/12/18 05:44:50;;;;;;;;;;;16.90;53.80;;;;;;4459037;32;20096;-75
2022/12/18 05:47:16;;;;;;;;;;;16.90;53.80;;;;;;4458176;32;19986;-73
2022/12/18 05:49:41;;;;;;;;;;;16.90;53.70;;;;;;4446125;32;20104;-73
2022/12/18 05:52:12;;;;;;;;;;;16.80;53.80;;;;;;4434491;32;20388;-73
2022/12/18 05:54:39;;;;;;;;;;;16.80;53.70;;;;;;4460596;32;19997;-73
2022/12/18 05:57:05;;;;;;;;;;;16.80;53.70;;;;;;4445350;32;19975;-73
2022/12/18 05:59:30;;;;;;;;;;;16.80;53.70;;;;;;4460569;32;19979;-73
2022/12/18 06:01:56;;;;;;;;;;;16.80;53.60;;;;;;4460439;32;20024;-73
2022/12/18 06:04:22;;;;;;;;;;;16.80;53.70;;;;;;4459506;32;19982;-73
2022/12/18 06:06:48;;;;;;;;;;;16.80;53.50;;;;;;4460069;32;19989;-73
2022/12/18 06:09:16;;;;;;;;;;;16.80;53.60;;;;;;4459329;32;20422;-73
2022/12/18 06:11:42;;;;;;;;;;;16.80;53.60;;;;;;4461336;32;19978;-73
2022/12/18 06:14:08;;;;;;;;;;;16.80;53.70;;;;;;4460864;32;19966;-72
2022/12/18 06:16:34;;;;;;;;;;;16.80;53.60;;;;;;4460983;32;20423;-73
2022/12/18 06:19:02;;;;;;;;;;;16.80;53.70;;;;;;4461101;32;20124;-73
2022/12/18 06:21:29;;;;;;;;;;;16.80;53.70;;;;;;4460946;32;19986;-73
2022/12/18 06:23:55;;;;;;;;;;;16.80;53.70;;;;;;4461001;32;19989;-73
2022/12/18 06:26:21;;;;;;;;;;;16.70;53.60;;;;;;4460986;32;20029;-73
2022/12/18 06:28:47;;;;;;;;;;;16.80;53.60;;;;;;4461072;32;20120;-73
2022/12/18 06:31:12;;;;;;;;;;;16.70;53.50;;;;;;4461083;32;19974;-73
2022/12/18 06:33:38;;;;;;;;;;;16.70;53.70;;;;;;4460696;32;20048;-73
2022/12/18 06:36:06;;;;;;;;;;;16.70;53.60;;;;;;4460877;32;20041;-73
2022/12/18 06:38:32;;;;;;;;;;;16.70;53.60;;;;;;4460502;32;20059;-73
2022/12/18 06:40:58;;;;;;;;;;;16.70;53.50;;;;;;4460793;32;20021;-75
2022/12/18 06:43:24;;;;;;;;;;;16.70;53.60;;;;;;4460611;32;20128;-73
2022/12/18 06:45:52;;;;;;;;;;;16.70;53.60;;;;;;4461001;32;20068;-73
2022/12/18 06:48:19;;;;;;;;;;;16.70;53.60;;;;;;4460706;32;20057;-72
2022/12/18 06:50:47;;;;;;;;;;;16.70;53.60;;;;;;4460664;32;20144;-73
2022/12/18 06:53:13;;;;;;;;;;;16.70;53.50;;;;;;4460816;32;20088;-72
2022/12/18 06:55:39;;;;;;;;;;;16.70;54.30;;;;;;4460598;32;19989;-73
2022/12/18 06:58:05;;;;;;;;;;;16.70;53.40;;;;;;4460894;32;20022;-72
2022/12/18 07:00:30;;;;;;;;;;;16.70;53.30;;;;;;4446461;32;19978;-72
2022/12/18 07:02:56;;;;;;;;;;;16.70;53.30;;;;;;4460803;32;19974;-72
2022/12/18 07:05:22;;;;;;;;;;;16.70;53.20;;;;;;4460535;32;20052;-75
2022/12/18 07:07:49;;;;;;;;;;;16.70;53.20;;;;;;4460694;32;20407;-72
2022/12/18 07:10:15;;;;;;;;;;;16.70;53.20;;;;;;4460587;32;19966;-73
2022/12/18 07:12:41;;;;;;;;;;;16.70;53.20;;;;;;4460530;32;20407;-73
2022/12/18 07:15:07;;;;;;;;;;;16.70;53.10;;;;;;4460549;32;20021;-72
2022/12/18 07:17:33;;;;;;;;;;;16.70;54.10;;;;;;4460671;32;19990;-73
2022/12/18 07:19:59;;;;;;;;;;;16.70;53.00;;;;;;4463314;32;20434;-72
2022/12/18 07:22:25;;;;;;;;;;;16.70;53.20;;;;;;4463408;32;19962;-73
2022/12/18 07:24:51;;;;;;;;;;;16.70;53.00;;;;;;4463426;32;19977;-72
2022/12/18 07:27:17;;;;;;;;;;;16.70;53.00;;;;;;4463604;32;20025;-72
2022/12/18 07:29:43;;;;;;;;;;;16.70;52.80;;;;;;4463366;32;19980;-73
2022/12/18 07:32:09;;;;;;;;;;;16.80;52.70;;;;;;4463437;32;20040;-72
2022/12/18 07:34:34;;;;;;;;;;;16.70;52.80;;;;;;4463084;32;20423;-73
2022/12/18 07:37:03;;;;;;;;;;;16.80;52.80;;;;;;4463113;32;19975;-72
2022/12/18 07:39:29;;;;;;;;;;;16.70;52.60;;;;;;4463383;32;20137;-72
2022/12/18 07:44:39;;;;;;;;;;;16.70;52.50;;;;;;4463193;32;20029;-72
2022/12/18 07:47:05;;;;;;;;;;;16.70;52.50;;;;;;4462881;32;20000;-72
2022/12/18 07:49:36;;;;;;;;;;;16.70;52.40;;;;;;4449826;32;20044;-73
2022/12/18 07:52:02;;;;;;;;;;;16.70;52.40;;;;;;4463026;32;20128;-71
2022/12/18 07:54:27;;;;;;;;;;;16.70;52.30;;;;;;4463134;32;20023;-72
2022/12/18 07:56:53;;;;;;;;;;;16.80;52.60;;;;;;4463046;32;19981;-72
2022/12/18 07:59:19;;;;;;;;;;;16.80;53.60;;;;;;4463220;32;20024;-71
2022/12/18 08:01:45;;;;;;;;;;;16.70;54.00;;;;;;4463329;32;19974;-72
2022/12/18 08:04:16;;;;;;;;;;;16.70;54.20;;;;;;4462978;32;19978;-71
2022/12/18 08:06:42;;;;;;;;;;;16.70;54.90;;;;;;4448899;32;19963;-72
2022/12/18 08:09:09;;;;;;;;;;;16.80;54.50;;;;;;4462770;32;19962;-71
2022/12/18 08:11:35;;;;;;;;;;;16.90;54.20;;;;;;4462685;32;20083;-71
2022/12/18 08:14:01;;;;;;;;;;;17.00;53.90;;;;;;4462397;32;19978;-72
2022/12/18 08:16:27;;;;;;;;;;;17.20;53.50;;;;;;4462497;32;20038;-71
2022/12/18 08:18:57;;;;;;;;;;;17.30;53.10;;;;;;4462763;32;20021;-71
2022/12/18 08:21:26;;;;;;;;;;;17.40;52.70;;;;;;4462573;32;20422;-71
2022/12/18 08:23:52;;;;;;;;;;;17.60;52.40;;;;;;4462707;32;20096;-71
2022/12/18 08:26:19;;;;;;;;;;;17.70;52.10;;;;;;4462513;32;19989;-71
2022/12/18 08:28:53;;;;;;;;;;;17.80;51.80;;;;;;4462448;32;19982;-72
2022/12/18 08:31:19;;;;;;;;;;;18.00;51.40;;;;;;4462695;32;19966;-71
2022/12/18 08:33:45;;;;;;;;;;;18.10;51.10;;;;;;4461972;32;19970;-71
2022/12/18 08:36:11;;;;;;;;;;;18.30;50.80;;;;;;4462420;32;20136;-71
2022/12/18 08:38:36;;;;;;;;;;;18.40;50.50;;;;;;4462319;32;19985;-71
2022/12/18 08:41:03;;;;;;;;;;;18.50;50.10;;;;;;4448311;32;19962;-71
2022/12/18 08:46:13;;;;;;;;;;;18.80;49.60;;;;;;4462559;32;19982;-71
2022/12/18 08:48:39;;;;;;;;;;;18.90;49.20;;;;;;4462027;32;20009;-71
2022/12/18 08:51:05;;;;;;;;;;;19.00;48.90;;;;;;4462225;32;19986;-71
2022/12/18 08:53:31;;;;;;;;;;;19.10;48.80;;;;;;4462074;32;19978;-72
2022/12/18 08:55:57;;;;;;;;;;;19.20;48.60;;;;;;4462285;32;19976;-72
2022/12/18 08:58:22;;;;;;;;;;;19.30;48.40;;;;;;4454064;32;19970;-71
2022/12/18 09:00:48;;;;;;;;;;;19.40;48.40;;;;;;4461777;32;20422;-72
2022/12/18 09:03:16;;;;;;;;;;;19.40;48.30;;;;;;4462165;32;20096;-71
2022/12/18 09:05:42;;;;;;;;;;;19.40;48.30;;;;;;4461886;32;20390;-71
2022/12/18 09:08:08;;;;;;;;;;;19.40;48.20;;;;;;4461973;32;20010;-70
2022/12/18 09:10:34;;;;;;;;;;;19.40;48.10;;;;;;4461955;32;20044;-71
2022/12/18 09:12:59;;;;;;;;;;;19.40;48.20;;;;;;4461767;32;20167;-73
2022/12/18 09:15:25;;;;;;;;;;;19.40;48.20;;;;;;4461736;32;19997;-71
2022/12/18 09:17:52;;;;;;;;;;;19.40;48.20;;;;;;4461345;32;20030;-71
2022/12/18 09:20:18;;;;;;;;;;;19.40;48.20;;;;;;4459346;32;19978;-72
2022/12/18 09:22:45;;;;;;;;;;;19.50;48.20;;;;;;4459722;32;19978;-71
2022/12/18 09:25:11;;;;;;;;;;;19.50;49.00;;;;;;4457530;32;19985;-71
2022/12/18 09:27:39;;;;;;;;;;;19.50;48.10;;;;;;4460109;32;19986;-71
2022/12/18 09:30:05;;;;;;;;;;;19.50;48.00;;;;;;4459579;32;20017;-71
2022/12/18 09:32:31;;;;;;;;;;;19.50;48.00;;;;;;4460808;32;19986;-71
2022/12/18 09:34:57;;;;;;;;;;;19.50;47.90;;;;;;4460834;32;20311;-71
2022/12/18 09:37:22;;;;;;;;;;;19.60;47.90;;;;;;4458956;32;20026;-71
2022/12/18 09:39:49;;;;;;;;;;;19.60;47.90;;;;;;4458810;32;20092;-71
2022/12/18 09:42:20;;;;;;;;;;;19.60;47.90;;;;;;4457725;32;20155;-71
2022/12/18 09:44:50;;;;;;;;;;;19.60;47.90;;;;;;4459292;32;20467;-71
2022/12/18 09:47:15;;;;;;;;;;;19.60;47.90;;;;;;4459063;32;20032;-71
2022/12/18 09:49:46;;;;;;;;;;;19.60;48.80;;;;;;4459994;32;19970;-71
2022/12/18 09:52:17;;;;;;;;;;;19.60;47.90;;;;;;4458247;32;20125;-72
2022/12/18 09:54:49;;;;;;;;;;;19.60;47.90;;;;;;4446220;32;19974;-71
2022/12/18 09:57:22;;;;;;;;;;;19.60;47.80;;;;;;4458672;32;20085;-71
2022/12/18 09:59:56;;;;;;;;;;;19.60;47.90;;;;;;4458970;32;20033;-72
2022/12/18 10:02:26;;;;;;;;;;;19.60;47.90;;;;;;4457395;32;20041;-71
2022/12/18 10:05:01;;;;;;;;;;;19.60;48.00;;;;;;4459365;32;19986;-71
2022/12/18 10:07:33;;;;;;;;;;;19.60;48.10;;;;;;4457299;32;19978;-73
2022/12/18 10:10:06;;;;;;;;;;;19.60;48.00;;;;;;4453940;32;20110;-71
2022/12/18 10:12:42;;;;;;;;;;;19.60;48.10;;;;;;4460582;32;20052;-72
2022/12/18 10:15:08;;;;;;;;;;;19.60;48.10;;;;;;4456501;32;20072;-72
2022/12/18 10:17:36;;;;;;;;;;;19.60;48.10;;;;;;4458907;32;20376;-73
2022/12/18 10:20:21;;;;;;;;;;;19.70;48.10;;;;;;4453262;32;19970;-78
2022/12/18 10:22:53;;;;;;;;;;;19.60;48.10;;;;;;4457242;32;20243;-74
2022/12/18 10:25:27;;;;;;;;;;;19.70;48.20;;;;;;4457115;32;19990;-72
2022/12/18 10:27:55;;;;;;;;;;;19.70;48.10;;;;;;4457167;32;20017;-73
2022/12/18 10:30:22;;;;;;;;;;;19.70;48.20;;;;;;4453218;32;20116;-72
2022/12/18 10:32:48;;;;;;;;;;;19.70;48.20;;;;;;4459447;32;20044;-74
2022/12/18 10:35:17;;;;;;;;;;;19.80;48.30;;;;;;4447714;32;20131;-73
2022/12/18 10:38:08;;;;;;;;;;;19.80;48.40;;;;;;4446963;32;20454;-73
2022/12/18 10:40:47;;;;;;;;;;;19.80;48.50;;;;;;4440782;32;19978;-70
2022/12/18 10:43:14;;;;;;;;;;;19.80;48.60;;;;;;4458676;32;20075;-72
2022/12/18 10:45:41;;;;;;;;;;;19.80;48.60;;;;;;4457058;32;19979;-72
2022/12/18 10:48:20;;;;;;;;;;;19.80;48.70;;;;;;4456460;32;20230;-73
2022/12/18 10:50:48;;;;;;;;;;;19.80;48.80;;;;;;4453228;32;20116;-72
2022/12/18 10:53:21;;;;;;;;;;;19.80;48.80;;;;;;4460389;32;20034;-73
2022/12/18 10:55:47;;;;;;;;;;;19.80;48.90;;;;;;4461725;32;20061;-72
2022/12/18 10:58:15;;;;;;;;;;;19.80;48.90;;;;;;4462948;32;20395;-73
2022/12/18 11:00:41;;;;;;;;;;;19.80;48.90;;;;;;4460773;32;19986;-72
2022/12/18 11:03:27;;;;;;;;;;;19.80;49.90;;;;;;4447310;32;19986;-71
2022/12/18 11:06:13;;;;;;;;;;;19.80;48.90;;;;;;4459720;32;19974;-73
2022/12/18 11:08:39;;;;;;;;;;;19.80;48.90;;;;;;4461897;32;20036;-72
2022/12/18 11:11:15;;;;;;;;;;;19.80;48.90;;;;;;4459851;32;20040;-72
2022/12/18 11:13:47;;;;;;;;;;;19.80;49.00;;;;;;4447034;32;19974;-72
2022/12/18 11:16:18;;;;;;;;;;;19.90;49.00;;;;;;4451323;32;20382;-71
2022/12/18 11:18:44;;;;;;;;;;;19.80;49.00;;;;;;4449692;32;19986;-71
2022/12/18 11:21:12;;;;;;;;;;;19.90;49.00;;;;;;4437239;32;19971;-74
2022/12/18 11:23:52;;;;;;;;;;;19.90;48.90;;;;;;4450099;32;19978;-72
2022/12/18 11:26:18;;;;;;;;;;;19.90;48.90;;;;;;4462239;32;20044;-73
2022/12/18 11:28:46;;;;;;;;;;;19.90;48.90;;;;;;4459445;32;20064;-72
2022/12/18 11:31:27;;;;;;;;;;;19.90;49.90;;;;;;4460996;32;19989;-72
2022/12/18 11:34:00;;;;;;;;;;;19.90;49.00;;;;;;4460524;32;20049;-72
2022/12/18 11:36:29;;;;;;;;;;;19.90;49.00;;;;;;4461883;32;20100;-72
2022/12/18 11:38:57;;;;;;;;;;;19.90;49.00;;;;;;4461174;32;20199;-73
2022/12/18 11:44:34;;;;;;;;;;;19.90;49.00;;;;;;4459983;32;19974;-72
2022/12/18 11:47:03;;;;;;;;;;;19.90;49.00;;;;;;4459290;32;20029;-71
2022/12/18 11:49:34;;;;;;;;;;;19.90;49.00;;;;;;4460529;32;19993;-71
2022/12/18 11:52:09;;;;;;;;;;;19.90;49.00;;;;;;4459103;32;20117;-73
2022/12/18 11:54:34;;;;;;;;;;;20.00;49.00;;;;;;4461796;32;20192;-71
2022/12/18 11:57:14;;;;;;;;;;;19.90;48.90;;;;;;4447401;32;20406;-71
2022/12/18 12:00:03;;;;;;;;;;;19.90;48.90;;;;;;4461857;32;20002;-72
2022/12/18 12:02:46;;;;;;;;;;;19.90;48.90;;;;;;4461690;32;19988;-72
2022/12/18 12:05:13;;;;;;;;;;;19.90;48.90;;;;;;4460038;32;19988;-72
2022/12/18 12:07:46;;;;;;;;;;;20.00;48.90;;;;;;4458664;32;19993;-72
2022/12/18 12:10:22;;;;;;;;;;;19.90;48.80;;;;;;4459760;32;20000;-72
2022/12/18 12:12:50;;;;;;;;;;;19.90;48.80;;;;;;4459137;32;20036;-74
2022/12/18 12:15:16;;;;;;;;;;;20.00;48.80;;;;;;4459774;32;19993;-71
2022/12/18 12:17:45;;;;;;;;;;;20.00;48.80;;;;;;4460378;32;19986;-71
2022/12/18 12:20:33;;;;;;;;;;;20.00;48.80;;;;;;4459903;32;19993;-72
2022/12/18 12:23:12;;;;;;;;;;;20.00;48.70;;;;;;4459821;32;20531;-71
2022/12/18 12:25:41;;;;;;;;;;;20.00;48.60;;;;;;4461403;32;20096;-72
2022/12/18 12:28:17;;;;;;;;;;;20.00;48.60;;;;;;4460756;32;19978;-71
2022/12/18 12:30:50;;;;;;;;;;;20.00;48.60;;;;;;4457760;32;19982;-72
2022/12/18 12:33:34;;;;;;;;;;;20.00;48.60;;;;;;4448580;32;20151;-72
2022/12/18 12:36:12;;;;;;;;;;;20.00;48.60;;;;;;4462520;32;19986;-78
2022/12/18 12:38:42;;;;;;;;;;;20.00;48.60;;;;;;4461316;32;19989;-75
2022/12/18 12:44:00;;;;;;;;;;;20.00;48.60;;;;;;4429095;32;20001;-75
2022/12/18 12:46:26;;;;;;;;;;;20.00;48.60;;;;;;4453777;32;20033;-76
2022/12/18 12:48:54;;;;;;;;;;;20.00;48.60;;;;;;4450391;32;20342;-75
2022/12/18 12:51:22;;;;;;;;;;;20.00;48.50;;;;;;4449298;32;19994;-74
2022/12/18 12:53:48;;;;;;;;;;;20.00;48.50;;;;;;4448127;32;20061;-75
2022/12/18 12:56:15;;;;;;;;;;;20.00;48.50;;;;;;4448404;32;19994;-75
2022/12/18 12:58:54;;;;;;;;;;;20.00;48.50;;;;;;4451523;32;20112;-77
2022/12/18 13:01:36;;;;;;;;;;;20.00;48.50;;;;;;4449181;32;19994;-73
2022/12/18 13:04:21;;;;;;;;;;;20.00;48.50;;;;;;4449016;32;20104;-70
2022/12/18 13:06:59;;;;;;;;;;;19.90;48.70;;;;;;4449682;32;20016;-85
2022/12/18 13:09:29;;;;;;;;;;;19.90;48.80;;;;;;4450317;32;20331;-76
2022/12/18 13:14:45;;;;;;;;;;;19.80;48.80;;;;;;4461493;32;20324;-75
2022/12/18 13:17:16;;;;;;;;;;;19.80;48.80;;;;;;4446379;32;20014;-75
2022/12/18 13:19:42;;;;;;;;;;;19.70;48.90;;;;;;4461419;32;20069;-74
2022/12/18 13:22:24;;;;;;;;;;;19.70;48.90;;;;;;4447837;32;20548;-75
2022/12/18 13:24:50;;;;;;;;;;;19.70;49.00;;;;;;4461599;32;19994;-78
2022/12/18 13:27:58;;;;;;;;;;;19.60;49.00;;;;;;4462092;32;20008;-75
2022/12/18 13:30:33;;;;;;;;;;;19.60;48.90;;;;;;4413800;32;20006;-76
2022/12/18 13:33:13;;;;;;;;;;;19.70;48.80;;;;;;4413597;32;20033;-75
2022/12/18 13:35:53;;;;;;;;;;;19.70;48.70;;;;;;4446826;32;19978;-75
2022/12/18 13:38:19;;;;;;;;;;;19.70;48.60;;;;;;4460638;32;20128;-75
2022/12/18 13:40:48;;;;;;;;;;;19.80;48.50;;;;;;4460608;32;20021;-76
2022/12/18 13:43:17;;;;;;;;;;;19.80;48.50;;;;;;4461504;32;19973;-75
2022/12/18 13:45:45;;;;;;;;;;;19.80;48.40;;;;;;4461294;32;20395;-75
2022/12/18 13:48:20;;;;;;;;;;;19.80;48.40;;;;;;4447275;32;19970;-75
2022/12/18 13:50:52;;;;;;;;;;;19.80;48.30;;;;;;4460817;32;20096;-75
2022/12/18 13:53:22;;;;;;;;;;;19.80;48.20;;;;;;4461350;32;20124;-76
2022/12/18 13:55:49;;;;;;;;;;;19.80;48.20;;;;;;4460720;32;20021;-76
2022/12/18 13:58:16;;;;;;;;;;;19.90;48.30;;;;;;4460878;32;20307;-76
2022/12/18 14:00:42;;;;;;;;;;;19.90;48.30;;;;;;4460750;32;19966;-75
2022/12/18 14:03:25;;;;;;;;;;;19.90;48.30;;;;;;4460914;32;20160;-77
2022/12/18 14:06:06;;;;;;;;;;;19.80;48.20;;;;;;4461257;32;19986;-76
2022/12/18 14:08:34;;;;;;;;;;;19.90;48.30;;;;;;4461011;32;20063;-75
2022/12/18 14:11:01;;;;;;;;;;;19.90;48.30;;;;;;4460642;32;19997;-76
2022/12/18 14:13:28;;;;;;;;;;;19.80;48.20;;;;;;4460736;32;19973;-76
2022/12/18 14:15:55;;;;;;;;;;;19.90;48.30;;;;;;4460849;32;20406;-76
2022/12/18 14:18:39;;;;;;;;;;;19.80;48.20;;;;;;4460888;32;20405;-76
2022/12/18 14:21:05;;;;;;;;;;;19.90;48.30;;;;;;4461092;32;19986;-76
2022/12/18 14:23:35;;;;;;;;;;;19.90;48.30;;;;;;4446056;32;19984;-76
2022/12/18 14:26:02;;;;;;;;;;;19.90;48.30;;;;;;4460908;32;20096;-75
2022/12/18 14:28:29;;;;;;;;;;;19.90;48.30;;;;;;4460375;32;20025;-75
2022/12/18 14:30:54;;;;;;;;;;;19.90;48.30;;;;;;4460911;32;20383;-76
2022/12/18 14:33:25;;;;;;;;;;;19.90;48.30;;;;;;4460755;32;20419;-75
2022/12/18 14:36:00;;;;;;;;;;;19.90;48.30;;;;;;4460935;32;19998;-76
2022/12/18 14:38:27;;;;;;;;;;;19.90;48.30;;;;;;4460695;32;19982;-75
2022/12/18 14:40:57;;;;;;;;;;;19.90;48.30;;;;;;4460715;32;20419;-76
2022/12/18 14:43:23;;;;;;;;;;;19.90;48.30;;;;;;4460460;32;19998;-76